Time;durP1;ratioP1;P1;durP2;ratioP2;P2;SDS_P1;SDS_P2;PMS_P1;PMS_P2;Temp;Humidity;BMP_temperature;BMP_pressure;BME280_temperature;BME280_humidity;BME280_pressure;Samples;Min_cycle;Max_cycle;Signal;HPM_P1;HPM_P2
2021/04/25 00:00:00;;;;;;;8.23;3.40;;;;;;;8.80;58.00;100881.28;5073681;28;20423;-58
2021/04/25 00:02:31;;;;;;;5.80;3.33;;;;;;;8.79;57.60;100876.97;5072303;28;20068;-58
2021/04/25 00:05:08;;;;;;;5.72;3.42;;;;;;;8.77;57.70;100876.03;5072472;28;20068;-58
2021/04/25 00:07:40;;;;;;;4.30;3.15;;;;;;;8.76;58.04;100882.03;5072810;28;20032;-58
2021/04/25 00:10:14;;;;;;;8.10;3.22;;;;;;;8.75;57.78;100882.84;5072956;28;20044;-58
2021/04/25 00:12:46;;;;;;;7.50;3.20;;;;;;;8.76;57.78;100881.13;5073519;28;20041;-59
2021/04/25 00:15:21;;;;;;;8.65;3.35;;;;;;;8.75;57.81;100885.44;5072239;28;20064;-58
2021/04/25 00:17:55;;;;;;;6.72;3.60;;;;;;;8.74;57.79;100890.53;5055887;28;20082;-58
2021/04/25 00:20:26;;;;;;;6.38;3.63;;;;;;;8.73;57.84;100887.06;5073326;28;20100;-58
2021/04/25 00:22:57;;;;;;;5.22;3.05;;;;;;;8.71;57.89;100886.13;5071961;28;20047;-58
2021/04/25 00:25:28;;;;;;;7.47;3.05;;;;;;;8.71;57.68;100883.56;5073645;28;20048;-58
2021/04/25 00:27:59;;;;;;;4.55;3.25;;;;;;;8.71;57.81;100877.50;5073174;28;20086;-58
2021/04/25 00:30:33;;;;;;;7.03;3.35;;;;;;;8.69;57.85;100880.03;5073938;28;20032;-58
2021/04/25 00:32:58;;;;;;;7.85;3.97;;;;;;;8.69;57.96;100877.44;5073453;28;20040;-58
2021/04/25 00:35:32;;;;;;;7.10;3.20;;;;;;;8.68;57.70;100873.09;5073285;28;20085;-58
2021/04/25 00:38:04;;;;;;;7.43;3.63;;;;;;;8.66;58.09;100869.56;5073247;28;20037;-58
2021/04/25 00:40:35;;;;;;;5.40;3.10;;;;;;;8.67;57.67;100871.34;5073321;28;20278;-58
2021/04/25 00:43:03;;;;;;;10.70;3.95;;;;;;;8.65;57.80;100857.47;5072425;28;20040;-58
2021/04/25 00:45:37;;;;;;;8.05;4.20;;;;;;;8.64;57.66;100851.44;5072291;28;20037;-58
2021/04/25 00:48:07;;;;;;;7.43;3.45;;;;;;;8.61;57.67;100850.44;5073543;28;20032;-58
2021/04/25 00:50:38;;;;;;;8.60;4.03;;;;;;;8.61;57.81;100853.91;5073355;28;20123;-58
2021/04/25 00:53:10;;;;;;;9.35;4.22;;;;;;;8.61;57.89;100860.78;5073793;28;20032;-58
2021/04/25 00:55:41;;;;;;;7.70;3.75;;;;;;;8.60;57.95;100853.84;5077636;28;20098;-58
2021/04/25 00:58:10;;;;;;;6.85;4.38;;;;;;;8.61;58.03;100850.44;5076354;28;20036;-58
2021/04/25 01:00:41;;;;;;;6.82;4.68;;;;;;;8.59;57.97;100849.50;5077268;28;20058;-58
2021/04/25 01:03:12;;;;;;;7.75;4.55;;;;;;;8.57;58.12;100857.19;5077298;28;20372;-58
2021/04/25 01:05:43;;;;;;;12.25;4.40;;;;;;;8.57;57.70;100853.72;5077009;28;20040;-58
2021/04/25 01:08:16;;;;;;;;;;;;;;;8.55;58.00;100856.28;5077330;28;20070;-58
2021/04/25 01:10:47;;;;;;;6.00;4.03;;;;;;;8.52;57.92;100846.69;5076871;28;19974;-58
2021/04/25 01:13:21;;;;;;;7.35;3.97;;;;;;;8.53;57.69;100855.34;5076878;28;20102;-58
2021/04/25 01:15:52;;;;;;;11.35;5.53;;;;;;;8.51;58.00;100852.69;5075452;28;20029;-58
2021/04/25 01:18:20;;;;;;;10.82;4.43;;;;;;;8.50;58.01;100853.50;5077021;28;20040;-58
2021/04/25 01:21:00;;;;;;;8.40;4.70;;;;;;;8.48;57.95;100854.28;5076702;28;20086;-58
2021/04/25 01:23:31;;;;;;;10.02;4.43;;;;;;;8.51;58.02;100851.81;5076725;28;20041;-58
2021/04/25 01:26:04;;;;;;;7.30;4.35;;;;;;;8.47;57.84;100852.47;5077233;28;20503;-58
2021/04/25 01:28:34;;;;;;;10.25;5.07;;;;;;;8.47;57.96;100853.38;5076580;28;20503;-58
2021/04/25 01:31:08;;;;;;;8.52;4.57;;;;;;;8.47;57.78;100853.38;5076406;28;20032;-58
2021/04/25 01:33:36;;;;;;;8.20;4.70;;;;;;;8.45;58.10;100855.00;5075145;28;20415;-58
2021/04/25 01:36:09;;;;;;;7.88;4.90;;;;;;;8.46;58.19;100855.88;5076507;28;20033;-58
2021/04/25 01:38:43;;;;;;;7.32;4.47;;;;;;;8.46;58.00;100854.19;5075924;28;20115;-58
2021/04/25 01:41:19;;;;;;;9.23;5.43;;;;;;;8.44;58.29;100855.84;5076636;28;20040;-58
2021/04/25 01:43:49;;;;;;;8.70;5.05;;;;;;;8.44;57.96;100854.94;5076581;28;20040;-58
2021/04/25 01:46:21;;;;;;;7.82;5.53;;;;;;;8.43;57.80;100854.06;5074762;28;20039;-58
2021/04/25 01:48:53;;;;;;;11.70;5.55;;;;;;;8.44;58.29;100853.25;5058037;28;20040;-58
2021/04/25 01:51:27;;;;;;;9.95;5.53;;;;;;;8.41;57.80;100855.72;5074822;28;20048;-58
2021/04/25 01:54:00;;;;;;;15.27;6.50;;;;;;;8.39;58.17;100859.94;5076448;28;20114;-58
2021/04/25 01:56:28;;;;;;;11.20;5.53;;;;;;;8.39;57.84;100862.53;5076488;28;20101;-58
2021/04/25 01:59:03;;;;;;;11.63;6.57;;;;;;;8.39;58.04;100867.69;5075628;28;20041;-58
2021/04/25 02:01:31;;;;;;;10.05;6.38;;;;;;;8.38;58.23;100865.91;5074896;28;20028;-59
2021/04/25 02:04:02;;;;;;;9.80;6.10;;;;;;;8.36;58.00;100862.41;5075313;28;20056;-57
2021/04/25 02:06:37;;;;;;;11.52;6.78;;;;;;;8.34;58.23;100870.09;5075145;28;20376;-58
2021/04/25 02:09:09;;;;;;;14.07;7.43;;;;;;;8.33;58.36;100872.63;5057686;28;20044;-58
2021/04/25 02:11:37;;;;;;;11.00;6.38;;;;;;;8.33;58.12;100864.88;5074397;28;20055;-57
2021/04/25 02:14:13;;;;;;;12.48;6.25;;;;;;;8.32;58.33;100869.16;5075274;28;20461;-58
2021/04/25 02:16:46;;;;;;;11.80;6.50;;;;;;;8.30;58.15;100868.22;5074496;28;20094;-57
2021/04/25 02:19:23;;;;;;;11.63;6.93;;;;;;;8.29;58.15;100861.28;5074747;28;20037;-57
2021/04/25 02:21:58;;;;;;;12.93;6.68;;;;;;;8.29;58.11;100863.00;5074573;28;20490;-58
2021/04/25 02:24:32;;;;;;;14.55;7.07;;;;;;;8.28;58.18;100868.97;5075690;28;20028;-56
2021/04/25 02:27:07;;;;;;;10.15;7.43;;;;;;;8.26;58.19;100865.47;5075367;28;20491;-58
2021/04/25 02:29:35;;;;;;;11.30;6.90;;;;;;;8.25;58.20;100871.44;5075768;28;20063;-58
2021/04/25 02:32:09;;;;;;;10.10;5.72;;;;;;;8.24;57.97;100875.75;5074969;28;20060;-59
2021/04/25 02:34:46;;;;;;;10.32;6.80;;;;;;;8.22;58.46;100878.25;5074349;28;20115;-59
2021/04/25 02:37:17;;;;;;;10.98;7.25;;;;;;;8.21;58.53;100879.06;5074322;28;20132;-59
2021/04/25 02:39:50;;;;;;;14.52;7.45;;;;;;;8.20;58.40;100882.47;5073670;28;20090;-58
2021/04/25 02:42:26;;;;;;;14.00;7.20;;;;;;;8.19;58.07;100888.44;5075331;28;20110;-59
2021/04/25 02:44:54;;;;;;;12.75;7.47;;;;;;;8.20;58.24;100886.75;5057726;28;20048;-59
2021/04/25 02:47:26;;;;;;;11.48;7.55;;;;;;;8.17;58.11;100890.13;5073791;28;20471;-58
2021/04/25 02:50:00;;;;;;;10.93;7.13;;;;;;;8.18;58.39;100893.56;5074268;28;20029;-58
2021/04/25 02:52:39;;;;;;;12.02;6.97;;;;;;;8.16;58.18;100884.88;5074932;28;20036;-58
2021/04/25 02:55:11;;;;;;;11.25;7.18;;;;;;;8.13;58.30;100883.06;5073656;28;20032;-59
2021/04/25 02:57:45;;;;;;;9.82;6.47;;;;;;;8.13;58.10;100880.47;5073427;28;20123;-58
2021/04/25 03:00:20;;;;;;;11.68;6.85;;;;;;;8.10;58.46;100882.06;5074379;28;20111;-59
2021/04/25 03:02:49;;;;;;;12.38;7.30;;;;;;;8.10;57.95;100879.50;5057139;28;20052;-59
2021/04/25 03:05:19;;;;;;;13.35;7.80;;;;;;;8.07;58.50;100881.13;5074960;28;20093;-59
2021/04/25 03:07:51;;;;;;;13.45;7.20;;;;;;;8.06;57.91;100881.03;5074756;28;20039;-58
2021/04/25 03:10:25;;;;;;;11.75;6.95;;;;;;;8.04;58.05;100881.00;5056813;28;20555;-58
2021/04/25 03:12:53;;;;;;;12.65;7.28;;;;;;;8.03;58.53;100878.34;5074427;28;20032;-58
2021/04/25 03:15:29;;;;;;;11.43;7.50;;;;;;;8.02;58.14;100879.19;5072978;28;20082;-58
2021/04/25 03:18:03;;;;;;;17.77;8.15;;;;;;;8.01;58.13;100882.59;5073687;28;20521;-56
2021/04/25 03:20:37;;;;;;;13.38;7.88;;;;;;;7.99;58.48;100873.91;5073288;28;20036;-58
2021/04/25 03:23:08;;;;;;;10.98;6.78;;;;;;;7.98;58.51;100874.72;5056673;28;20432;-59
2021/04/25 03:25:41;;;;;;;12.95;7.68;;;;;;;7.97;58.21;100889.31;5074095;28;20040;-58
2021/04/25 03:28:13;;;;;;;13.20;7.15;;;;;;;7.96;58.39;100878.94;5074658;28;20040;-58
2021/04/25 03:30:48;;;;;;;13.32;7.53;;;;;;;7.91;58.47;100881.34;5073792;28;20048;-58
2021/04/25 03:33:19;;;;;;;10.00;6.63;;;;;;;7.89;58.50;100870.94;5073206;28;20037;-56
2021/04/25 03:35:55;;;;;;;11.50;7.30;;;;;;;7.87;58.14;100882.03;5074337;28;20498;-58
2021/04/25 03:38:26;;;;;;;12.98;7.45;;;;;;;7.87;58.05;100879.44;5074465;28;20503;-57
2021/04/25 03:41:02;;;;;;;12.27;7.38;;;;;;;7.86;58.15;100881.13;5074154;28;20040;-56
2021/04/25 03:43:33;;;;;;;10.57;7.45;;;;;;;7.84;58.19;100879.31;5074188;28;20491;-58
2021/04/25 03:46:04;;;;;;;10.45;6.63;;;;;;;7.81;58.33;100880.06;5073813;28;20085;-56
2021/04/25 03:48:38;;;;;;;12.90;7.07;;;;;;;7.80;58.17;100883.47;5056087;28;20119;-57
2021/04/25 03:51:08;;;;;;;10.35;6.55;;;;;;;7.78;58.47;100875.66;5073027;28;20043;-56
2021/04/25 03:53:37;;;;;;;10.85;6.35;;;;;;;7.77;58.59;100876.50;5073534;28;20029;-59
2021/04/25 03:56:13;;;;;;;12.85;7.95;;;;;;;7.75;58.42;100888.44;5073853;28;20032;-56
2021/04/25 03:58:44;;;;;;;12.02;6.30;;;;;;;7.74;58.64;100878.94;5072685;28;20025;-56
2021/04/25 04:01:17;;;;;;;16.27;8.18;;;;;;;7.73;58.44;100877.19;5073718;28;20048;-57
2021/04/25 04:03:48;;;;;;;13.43;7.70;;;;;;;7.71;58.51;100881.41;5072845;28;20056;-58
2021/04/25 04:06:22;;;;;;;13.70;7.65;;;;;;;7.70;58.66;100879.63;5073960;28;20082;-58
2021/04/25 04:09:01;;;;;;;13.32;7.57;;;;;;;7.70;58.33;100889.94;5072475;28;20126;-58
2021/04/25 04:11:32;;;;;;;10.70;7.30;;;;;;;7.70;58.22;100886.50;5072161;28;20067;-58
2021/04/25 04:14:05;;;;;;;12.57;7.28;;;;;;;7.68;58.35;100880.41;5072936;28;20041;-57
2021/04/25 04:16:36;;;;;;;12.20;7.38;;;;;;;7.66;58.35;100877.72;5074181;28;20040;-56
2021/04/25 04:19:06;;;;;;;14.65;9.07;;;;;;;7.65;58.34;100882.84;5073741;28;20045;-57
2021/04/25 04:21:40;;;;;;;13.55;7.82;;;;;;;7.67;58.44;100886.38;5072163;28;20081;-57
2021/04/25 04:24:08;;;;;;;13.60;7.95;;;;;;;7.65;58.65;100891.44;5072006;28;20395;-56
2021/04/25 04:26:44;;;;;;;16.75;8.00;;;;;;;7.63;58.44;100887.91;5072559;28;20032;-56
2021/04/25 04:29:18;;;;;;;10.60;7.53;;;;;;;7.60;58.32;100891.28;5073753;28;20089;-56
2021/04/25 04:31:49;;;;;;;12.75;8.13;;;;;;;7.60;58.62;100896.44;5073344;28;20036;-57
2021/04/25 04:34:25;;;;;;;13.30;7.80;;;;;;;7.58;58.66;100892.03;5072378;28;20437;-56
2021/04/25 04:36:51;;;;;;;12.98;8.45;;;;;;;7.56;58.38;100886.78;5072927;28;20151;-58
2021/04/25 04:39:25;;;;;;;11.98;8.18;;;;;;;7.55;58.22;100890.19;5072196;28;20518;-58
2021/04/25 04:41:59;;;;;;;13.98;7.35;;;;;;;7.52;58.36;100887.50;5073583;28;20548;-58
2021/04/25 04:44:27;;;;;;;16.50;8.07;;;;;;;7.52;58.69;100892.66;5072306;28;20033;-59
2021/04/25 04:46:58;;;;;;;11.10;7.35;;;;;;;7.51;58.17;100896.06;5073234;28;20040;-58
2021/04/25 04:49:29;;;;;;;11.80;7.22;;;;;;;7.50;58.17;100895.97;5072994;28;20109;-59
2021/04/25 04:52:05;;;;;;;12.43;7.45;;;;;;;7.49;58.83;100899.38;5073036;28;20126;-58
2021/04/25 04:54:39;;;;;;;10.45;6.95;;;;;;;7.47;58.34;100897.59;5073446;28;20083;-58
2021/04/25 04:57:09;;;;;;;14.98;7.45;;;;;;;7.47;58.22;100901.88;5073077;28;20111;-58
2021/04/25 04:59:37;;;;;;;13.25;8.15;;;;;;;7.46;58.71;100901.03;5071469;28;20033;-58
2021/04/25 05:02:10;;;;;;;14.95;7.93;;;;;;;7.45;58.80;100906.09;5072326;28;20072;-58
2021/04/25 05:04:46;;;;;;;14.63;7.82;;;;;;;7.45;58.15;100916.41;5073336;28;20037;-58
2021/04/25 05:07:17;;;;;;;18.00;9.25;;;;;;;7.44;58.67;100919.81;5073136;28;20064;-58
2021/04/25 05:09:49;;;;;;;14.20;8.48;;;;;;;7.42;58.86;100914.59;5071517;28;20040;-57
2021/04/25 05:12:21;;;;;;;12.52;7.47;;;;;;;7.43;58.33;100918.94;5072725;28;20033;-58
2021/04/25 05:14:57;;;;;;;12.50;7.53;;;;;;;7.41;58.40;100915.41;5071975;28;20055;-58
2021/04/25 05:17:31;;;;;;;14.25;7.72;;;;;;;7.40;58.27;100920.50;5073059;28;20051;-58
2021/04/25 05:20:01;;;;;;;16.33;9.05;;;;;;;7.39;58.40;100923.91;5073101;28;20037;-58
2021/04/25 05:22:30;;;;;;;14.48;8.27;;;;;;;7.39;58.45;100918.75;5073045;28;20036;-58
2021/04/25 05:25:00;;;;;;;15.40;7.47;;;;;;;7.39;58.53;100908.44;5072874;28;20029;-58
2021/04/25 05:27:26;;;;;;;14.95;8.70;;;;;;;7.38;58.12;100923.00;5072152;28;20115;-58
2021/04/25 05:29:57;;;;;;;19.15;9.05;;;;;;;7.38;58.52;100922.16;5072862;28;20056;-58
2021/04/25 05:32:28;;;;;;;16.92;8.63;;;;;;;7.38;58.58;100919.56;5071261;28;20499;-58
2021/04/25 05:35:02;;;;;;;16.17;9.13;;;;;;;7.40;58.98;100925.66;5071529;28;20033;-58
2021/04/25 05:37:30;;;;;;;15.45;8.70;;;;;;;7.38;58.55;100922.16;5073024;28;20041;-58
2021/04/25 05:40:04;;;;;;;13.68;9.40;;;;;;;7.40;58.96;100925.66;5075139;28;20055;-57
2021/04/25 05:42:35;;;;;;;16.38;9.10;;;;;;;7.40;58.64;100923.06;5075188;28;20032;-58
2021/04/25 05:45:07;;;;;;;15.60;9.20;;;;;;;7.41;58.98;100919.69;5075522;28;20044;-58
2021/04/25 05:47:41;;;;;;;15.60;9.60;;;;;;;7.42;58.45;100929.19;5075830;28;20047;-58
2021/04/25 05:50:14;;;;;;;22.38;11.02;;;;;;;7.41;58.87;100925.72;5076474;28;20041;-58
2021/04/25 05:52:48;;;;;;;18.17;11.40;;;;;;;7.43;58.88;100925.78;5076419;28;20039;-58
2021/04/25 05:55:17;;;;;;;20.13;10.60;;;;;;;7.44;58.56;100936.19;5074991;28;20101;-58
2021/04/25 05:57:49;;;;;;;18.10;10.70;;;;;;;7.44;59.12;100932.72;5075714;28;20040;-59
2021/04/25 06:00:26;;;;;;;16.10;10.73;;;;;;;7.45;58.92;100934.47;5075485;28;20090;-58
2021/04/25 06:02:54;;;;;;;17.95;11.07;;;;;;;7.45;58.98;100932.78;5075827;28;20041;-58
2021/04/25 06:05:27;;;;;;;17.08;9.30;;;;;;;7.45;59.01;100937.94;5074963;28;20110;-58
2021/04/25 06:07:55;;;;;;;14.57;9.93;;;;;;;7.46;58.94;100946.56;5058264;28;20098;-58
2021/04/25 06:10:27;;;;;;;19.33;10.32;;;;;;;7.48;58.68;100944.94;5074750;28;20119;-59
2021/04/25 06:13:00;;;;;;;14.90;8.85;;;;;;;7.45;59.17;100945.69;5074088;28;20064;-58
2021/04/25 06:15:36;;;;;;;14.70;9.17;;;;;;;7.44;58.93;100956.81;5076020;28;20040;-58
2021/04/25 06:18:05;;;;;;;14.45;9.77;;;;;;;7.45;59.21;100957.69;5074653;28;20788;-56
2021/04/25 06:20:37;;;;;;;17.30;9.25;;;;;;;7.46;59.11;100951.72;5075950;28;20097;-58
2021/04/25 06:23:10;;;;;;;28.65;10.05;;;;;;;7.47;58.86;100950.91;5075551;28;20028;-58
2021/04/25 06:25:41;;;;;;;16.23;8.23;;;;;;;7.46;59.11;100955.19;5075399;28;20491;-57
2021/04/25 06:28:12;;;;;;;14.25;9.25;;;;;;;7.49;59.07;100950.94;5075546;28;20037;-59
2021/04/25 06:30:43;;;;;;;13.77;9.18;;;;;;;7.47;58.89;100948.31;5057870;28;20036;-58
2021/04/25 06:33:14;;;;;;;15.07;9.73;;;;;;;7.50;59.31;100950.13;5074313;28;20037;-57
2021/04/25 06:35:48;;;;;;;15.30;9.83;;;;;;;7.48;59.26;100947.50;5074795;28;20032;-58
2021/04/25 06:38:19;;;;;;;12.98;9.52;;;;;;;7.50;59.20;100945.88;5074468;28;20025;-58
2021/04/25 06:40:53;;;;;;;15.73;9.07;;;;;;;7.50;58.81;100948.47;5057759;28;20040;-58
2021/04/25 06:43:24;;;;;;;16.52;9.60;;;;;;;7.51;59.05;100946.75;5074143;28;20082;-58
2021/04/25 06:45:50;;;;;;;15.63;8.65;;;;;;;7.51;59.22;100947.66;5057321;28;20051;-58
2021/04/25 06:48:20;;;;;;;17.38;10.73;;;;;;;7.54;58.66;100954.63;5074219;28;20064;-58
2021/04/25 06:50:55;;;;;;;15.15;8.70;;;;;;;7.53;59.06;100947.69;5075340;28;20044;-58
2021/04/25 06:53:27;;;;;;;14.93;9.65;;;;;;;7.53;59.23;100943.44;5074279;28;20033;-58
2021/04/25 06:55:57;;;;;;;15.43;9.30;;;;;;;7.54;58.91;100939.16;5075210;28;20036;-58
2021/04/25 06:58:29;;;;;;;13.63;9.38;;;;;;;7.53;59.27;100946.03;5073660;28;20032;-58
2021/04/25 07:00:57;;;;;;;14.70;9.52;;;;;;;7.55;58.93;100946.94;5074550;28;20037;-58
2021/04/25 07:03:26;;;;;;;13.85;8.25;;;;;;;7.55;59.05;100946.94;5073249;28;20048;-58
2021/04/25 07:05:59;;;;;;;15.23;9.50;;;;;;;7.57;59.33;100950.47;5073255;28;20074;-58
2021/04/25 07:08:27;;;;;;;16.08;8.35;;;;;;;7.55;59.03;100946.94;5075180;28;20032;-58
2021/04/25 07:10:55;;;;;;;14.13;9.25;;;;;;;7.57;59.04;100953.03;5074835;28;20491;-58
2021/04/25 07:13:28;;;;;;;16.05;9.15;;;;;;;7.56;59.13;100956.44;5056756;28;20043;-58
2021/04/25 07:15:55;;;;;;;21.33;9.38;;;;;;;7.59;59.58;100956.56;5073943;28;20412;-58
2021/04/25 07:18:26;;;;;;;14.15;9.38;;;;;;;7.58;59.05;100952.22;5074463;28;20127;-58
2021/04/25 07:20:58;;;;;;;12.80;8.65;;;;;;;7.57;59.48;100953.03;5074538;28;20040;-58
2021/04/25 07:23:29;;;;;;;17.80;8.88;;;;;;;7.60;59.08;100955.75;5072969;28;20041;-58
2021/04/25 07:26:05;;;;;;;14.15;9.48;;;;;;;7.60;59.08;100958.34;5073891;28;20032;-58
2021/04/25 07:28:38;;;;;;;14.05;9.45;;;;;;;7.61;59.16;100954.94;5072801;28;20055;-58
2021/04/25 07:31:07;;;;;;;14.60;8.63;;;;;;;7.62;59.60;100961.00;5074084;28;20407;-58
2021/04/25 07:33:38;;;;;;;15.27;8.93;;;;;;;7.64;58.88;100969.66;5073942;28;20028;-58
2021/04/25 07:36:09;;;;;;;14.73;8.52;;;;;;;7.63;59.39;100970.47;5074063;28;20125;-58
2021/04/25 07:38:43;;;;;;;15.88;9.60;;;;;;;7.63;59.31;100965.31;5073079;28;20184;-58
2021/04/25 07:41:16;;;;;;;16.95;9.80;;;;;;;7.64;59.24;100964.50;5074218;28;20185;-58
2021/04/25 07:43:44;;;;;;;13.57;8.10;;;;;;;7.64;59.10;100968.81;5072802;28;20035;-58
2021/04/25 07:46:15;;;;;;;14.00;8.52;;;;;;;7.64;59.49;100966.22;5073660;28;20036;-58
2021/04/25 07:48:46;;;;;;;17.30;8.45;;;;;;;7.64;59.49;100963.63;5074064;28;20059;-58
2021/04/25 07:51:17;;;;;;;15.40;7.72;;;;;;;7.64;59.29;100966.22;5072157;28;20075;-58
2021/04/25 07:53:51;;;;;;;11.80;7.38;;;;;;;7.64;59.30;100963.63;5073086;28;20043;-58
2021/04/25 07:56:17;;;;;;;11.98;7.40;;;;;;;7.64;58.89;100956.78;5073820;28;20032;-58
2021/04/25 07:58:49;;;;;;;12.15;8.52;;;;;;;7.62;59.35;100955.84;5055948;28;20115;-58
2021/04/25 08:01:20;;;;;;;12.25;7.57;;;;;;;7.64;59.14;100950.75;5072424;28;20491;-58
2021/04/25 08:03:51;;;;;;;15.75;7.13;;;;;;;7.62;59.57;100956.72;5071995;28;20044;-58
2021/04/25 08:06:25;;;;;;;11.10;6.45;;;;;;;7.63;58.87;100962.75;5073056;28;20040;-58
2021/04/25 08:08:56;;;;;;;10.68;7.93;;;;;;;7.64;59.47;100966.22;5072772;28;20094;-58
2021/04/25 08:11:28;;;;;;;12.05;6.97;;;;;;;7.63;58.93;100962.75;5055714;28;20135;-58
2021/04/25 08:13:58;;;;;;;13.55;7.47;;;;;;;7.65;59.08;100965.41;5055437;28;20595;-58
2021/04/25 08:16:28;;;;;;;12.63;8.07;;;;;;;7.66;59.12;100962.88;5072772;28;20044;-58
2021/04/25 08:19:00;;;;;;;10.02;7.05;;;;;;;7.67;59.05;100964.66;5055816;28;20040;-57
2021/04/25 08:21:30;;;;;;;11.18;7.18;;;;;;;7.68;59.37;100961.25;5073475;28;20470;-58
2021/04/25 08:24:01;;;;;;;10.38;7.30;;;;;;;7.70;59.19;100961.34;5072489;28;20115;-58
2021/04/25 08:26:30;;;;;;;11.85;8.73;;;;;;;7.71;59.12;100960.50;5072306;28;20075;-58
2021/04/25 08:29:01;;;;;;;12.38;7.38;;;;;;;7.71;58.98;100953.66;5073174;28;20035;-58
2021/04/25 08:31:29;;;;;;;14.60;7.20;;;;;;;7.71;59.16;100958.81;5072568;28;20044;-58
2021/04/25 08:33:58;;;;;;;16.08;8.20;;;;;;;7.72;59.17;100962.25;5072819;28;20039;-58
2021/04/25 08:36:29;;;;;;;14.30;8.10;;;;;;;7.72;59.33;100957.09;5072401;28;20036;-58
2021/04/25 08:39:00;;;;;;;13.32;7.60;;;;;;;7.72;59.34;100964.84;5073224;28;20036;-58
2021/04/25 08:41:31;;;;;;;16.17;7.43;;;;;;;7.72;59.50;100967.41;5072448;28;20037;-58
2021/04/25 08:44:00;;;;;;;15.50;8.43;;;;;;;7.73;59.38;100964.03;5072228;28;20032;-58
2021/04/25 08:46:32;;;;;;;12.75;8.18;;;;;;;7.73;59.46;100964.91;5055595;28;20127;-58
2021/04/25 08:49:00;;;;;;;13.80;7.55;;;;;;;7.73;58.88;100964.03;5072083;28;20036;-58
2021/04/25 08:51:34;;;;;;;10.60;7.55;;;;;;;7.71;59.25;100951.06;5073405;28;20133;-58
2021/04/25 08:54:08;;;;;;;11.93;7.03;;;;;;;7.73;59.04;100958.84;5072356;28;20029;-58
2021/04/25 08:56:40;;;;;;;15.32;7.72;;;;;;;7.74;59.03;100958.03;5056188;28;20105;-58
2021/04/25 08:59:06;;;;;;;17.63;6.78;;;;;;;7.78;59.19;100959.94;5071590;28;20029;-58
2021/04/25 09:01:32;;;;;;;13.63;8.10;;;;;;;7.78;59.01;100954.78;5071826;28;20110;-58
2021/04/25 09:04:03;;;;;;;12.63;8.18;;;;;;;7.80;59.06;100948.00;5071701;28;20075;-58
2021/04/25 09:06:32;;;;;;;11.38;8.93;;;;;;;7.83;59.53;100949.81;5072410;28;20118;-57
2021/04/25 09:09:04;;;;;;;11.23;7.85;;;;;;;7.84;59.31;100957.63;5073027;28;20029;-58
2021/04/25 09:11:41;;;;;;;15.55;7.93;;;;;;;7.86;59.34;100942.19;5073046;28;20045;-58
2021/04/25 09:14:16;;;;;;;15.35;6.88;;;;;;;7.86;58.97;100947.38;5073052;28;20036;-58
2021/04/25 09:16:54;;;;;;;13.20;7.57;;;;;;;7.88;59.32;100941.44;5075141;28;20037;-58
2021/04/25 09:19:22;;;;;;;13.80;9.00;;;;;;;7.90;59.53;100952.72;5077052;28;20484;-58
2021/04/25 09:21:59;;;;;;;15.45;7.85;;;;;;;7.94;59.10;100961.47;5075400;28;20045;-58
2021/04/25 09:24:31;;;;;;;12.63;7.65;;;;;;;7.96;59.35;100959.81;5077069;28;20032;-58
2021/04/25 09:27:00;;;;;;;8.95;6.70;;;;;;;7.98;58.92;100959.91;5074959;28;20454;-58
2021/04/25 09:29:49;;;;;;;13.00;7.20;;;;;;;7.98;58.84;100962.47;5075378;28;20040;-58
2021/04/25 09:32:24;;;;;;;12.23;7.90;;;;;;;7.96;58.79;100952.06;5076531;28;20448;-58
2021/04/25 09:35:05;;;;;;;15.00;8.48;;;;;;;7.96;58.78;100954.66;5075543;28;20495;-58
2021/04/25 09:37:34;;;;;;;13.15;7.72;;;;;;;7.97;59.23;100956.41;5058306;28;20551;-58
2021/04/25 09:40:09;;;;;;;12.90;7.65;;;;;;;7.99;59.07;100961.66;5076458;28;20032;-58
2021/04/25 09:42:58;;;;;;;10.82;7.43;;;;;;;8.01;58.91;100957.44;5074932;28;20127;-58
2021/04/25 09:45:28;;;;;;;12.27;7.45;;;;;;;8.00;59.31;100964.31;5075193;28;20439;-58
2021/04/25 09:47:59;;;;;;;10.48;7.85;;;;;;;8.02;58.66;100961.81;5074950;28;20044;-58
2021/04/25 09:50:32;;;;;;;11.43;7.72;;;;;;;8.04;59.04;100970.47;5074974;28;20040;-58
2021/04/25 09:53:15;;;;;;;15.10;7.88;;;;;;;8.04;59.25;100960.13;5076215;28;20048;-58
2021/04/25 09:55:41;;;;;;;13.13;7.85;;;;;;;8.04;59.17;100966.19;5076301;28;20400;-58
2021/04/25 09:58:14;;;;;;;12.18;7.55;;;;;;;8.05;59.15;100962.81;5074917;28;20089;-58
2021/04/25 10:00:49;;;;;;;14.20;8.90;;;;;;;8.06;58.90;100956.81;5074852;28;20368;-57
2021/04/25 10:03:18;;;;;;;;;;;;;;;8.06;58.78;100953.34;5076465;28;20055;-58
2021/04/25 10:05:59;;;;;;;11.95;8.88;;;;;;;8.06;59.26;100954.22;5074708;28;19920;-58
2021/04/25 10:08:36;;;;;;;13.85;9.43;;;;;;;8.08;58.98;100950.03;5075901;28;20464;-58
2021/04/25 10:11:09;;;;;;;11.43;8.43;;;;;;;8.08;59.24;100939.69;5075921;28;20040;-58
2021/04/25 10:13:47;;;;;;;15.88;9.98;;;;;;;8.12;59.05;100943.28;5076253;28;20036;-58
2021/04/25 10:16:20;;;;;;;12.23;8.85;;;;;;;8.11;59.05;100938.94;5076018;28;20037;-58
2021/04/25 10:18:50;;;;;;;14.02;9.32;;;;;;;8.11;58.79;100931.19;5075725;28;20095;-58
2021/04/25 10:21:19;;;;;;;13.70;9.02;;;;;;;8.12;59.16;100939.78;5075732;28;20069;-58
2021/04/25 10:23:52;;;;;;;11.43;8.63;;;;;;;8.14;58.77;100939.06;5074323;28;20040;-58
2021/04/25 10:26:28;;;;;;;14.68;9.75;;;;;;;8.14;58.96;100933.00;5075692;28;20082;-58
2021/04/25 10:29:11;;;;;;;13.07;8.73;;;;;;;8.16;59.06;100928.78;5058104;28;20052;-58
2021/04/25 10:31:43;;;;;;;14.05;8.35;;;;;;;8.17;59.02;100934.03;5074341;28;20434;-58
2021/04/25 10:34:20;;;;;;;15.55;9.23;;;;;;;8.17;59.04;100926.28;5075463;28;20051;-58
2021/04/25 10:36:57;;;;;;;13.48;9.10;;;;;;;8.17;58.89;100934.03;5074032;28;20499;-58
2021/04/25 10:39:36;;;;;;;12.77;8.45;;;;;;;8.19;58.96;100913.41;5075416;28;20482;-58
2021/04/25 10:45:07;;;;;;;14.07;8.32;;;;;;;8.19;59.30;100911.69;5074934;28;20119;-58
2021/04/25 10:47:38;;;;;;;11.27;7.97;;;;;;;8.21;58.71;100917.81;5074172;28;20060;-58
2021/04/25 10:50:09;;;;;;;12.50;7.85;;;;;;;8.21;58.97;100912.63;5075009;28;20044;-58
2021/04/25 10:52:43;;;;;;;16.80;8.48;;;;;;;8.21;58.90;100915.22;5073842;28;20103;-58
2021/04/25 10:55:22;;;;;;;;;;;;;;;;;;;;;
2021/04/25 11:00:40;;;;;;;13.10;9.73;;;;;;;8.24;58.63;100904.16;5073687;28;20440;-58
2021/04/25 11:03:08;;;;;;;13.85;8.60;;;;;;;8.25;58.72;100905.91;5075226;28;20102;-58
2021/04/25 11:05:37;;;;;;;11.32;7.25;;;;;;;8.27;58.71;100900.78;5074745;28;20111;-58
2021/04/25 11:08:28;;;;;;;16.30;9.40;;;;;;;8.27;58.92;100896.50;5073742;28;20124;-58
2021/04/25 11:11:11;;;;;;;13.50;8.40;;;;;;;8.28;58.73;100898.25;5074258;28;20570;-58
2021/04/25 11:13:46;;;;;;;12.40;8.38;;;;;;;8.29;59.01;100899.16;5074570;28;20035;-58
2021/04/25 11:16:18;;;;;;;11.25;8.35;;;;;;;8.31;58.58;100907.84;5057615;28;20037;-58
2021/04/25 11:18:55;;;;;;;14.32;7.45;;;;;;;8.31;58.71;100897.53;5074904;28;20174;-58
2021/04/25 11:24:07;;;;;;;15.10;8.25;;;;;;;8.33;58.60;100890.72;5074406;28;20039;-58
2021/04/25 11:26:42;;;;;;;;;;;;;;;8.32;58.61;100896.69;5074122;28;20144;-58
2021/04/25 11:29:19;;;;;;;11.15;6.88;;;;;;;8.33;58.59;100893.31;5074895;28;19912;-58
2021/04/25 11:31:55;;;;;;;11.82;7.97;;;;;;;8.34;58.83;100888.19;5074578;28;20086;-58
2021/04/25 11:34:32;;;;;;;9.85;6.63;;;;;;;8.35;58.75;100899.38;5073215;28;20396;-58
2021/04/25 11:37:06;;;;;;;11.93;8.45;;;;;;;8.36;58.68;100896.88;5073538;28;20067;-58
2021/04/25 11:39:41;;;;;;;11.18;8.25;;;;;;;8.38;58.91;100894.34;5072676;28;20400;-58
2021/04/25 11:42:13;;;;;;;12.52;7.82;;;;;;;8.38;59.06;100900.41;5072609;28;20048;-58
2021/04/25 11:44:42;;;;;;;10.57;7.53;;;;;;;8.40;59.08;100897.88;5072653;28;20040;-58
2021/04/25 11:47:13;;;;;;;10.40;7.13;;;;;;;8.40;58.78;100886.66;5072795;28;20123;-58
2021/04/25 11:49:47;;;;;;;11.13;7.22;;;;;;;8.44;59.10;100893.69;5074537;28;20127;-58
2021/04/25 11:52:25;;;;;;;;;;;;;;;8.43;58.75;100890.25;5056909;28;20059;-58
2021/04/25 11:55:10;;;;;;;10.93;7.07;;;;;;;8.38;58.52;100890.06;5056316;28;19955;-58
2021/04/25 11:57:42;;;;;;;13.07;7.13;;;;;;;8.41;58.63;100894.47;5073785;28;20036;-58
2021/04/25 12:00:19;;;;;;;11.63;7.10;;;;;;;8.41;58.66;100891.00;5073870;28;20048;-58